Terminal Aerodrome Forecast
Issued by NWS

Home | Current Version | Previous Version | Text Only | Print | Product List | Glossary Off
Versions: 1 2 3 4 5 6 7 8 9 10 11 12 13 14 15 16

000
FTUS43 KBIS 300526
TAFMOT
TAF
KMOT 300526Z 3006/3106 17006KT 4SM FU SCT040
      TEMPO 3010/3014 2SM FU BKN030
     FM301500 17012KT P6SM BKN250
     FM301900 18015G23KT P6SM SCT250
     FM310300 VRB05KT P6SM SCT080 BKN120 OVC250=

USA.gov is the U.S. government's official web portal to all federal, state and local government web resources and services.